Yuedian 58 — BYFE — position and weather

sailwx.info

Track history (hours):
 
Tides and Currents Weather Stations Pressure Air Temp Water Temp Dewpoint Dewpoint Depression Visibility Wind Speed Wind Dir Waves Ship Positions

Yuedian 58

Last reported at 2015-Feb-28 02:21 UTC. Time now 2015-Mar-01 11:04 UTC.
Position N 37°34' E 122°46'.

Length 190 m; draft 7.5 m.

Type: Cargo ship. MMSI: 414008000.

Date/timePositionNaut miles runAvg speedWind from/ knotsBaromVisibWave heightAir tempDewpointWater temp
2015-Feb-28 02:21N 37°34' E 122°46'2312.8
2015-Feb-28 00:33N 37°12' E 122°53'1313.1
2015-Feb-27 23:33N 36°59' E 122°54'  
2015-Feb-25 11:28N 25°12' E 119°50'2713.9
2015-Feb-25 09:33N 24°56' E 119°26'1413.5
2015-Feb-25 08:32N 24°56' E 119°11'1111.1
2015-Feb-25 07:34N 25°03' E 119°02'1010.3
2015-Feb-25 06:33N 25°13' E 118°58'0 0.3
2015-Feb-25 05:21N 25°12' E 118°58'0 0.0
2015-Feb-25 04:33N 25°12' E 118°58'0 0.0
2015-Feb-25 03:33N 25°12' E 118°58'0 0.0
2015-Feb-25 02:27N 25°12' E 118°58'0 0.0
2015-Feb-25 01:33N 25°12' E 118°58'0 0.0
2015-Feb-25 00:21N 25°12' E 118°58'0 0.0
2015-Feb-24 23:33N 25°12' E 118°58'0 0.0
2015-Feb-24 22:21N 25°12' E 118°58'0 0.0
2015-Feb-24 21:33N 25°12' E 118°58'0 0.0
2015-Feb-24 20:27N 25°12' E 118°58'0 0.0
2015-Feb-24 19:15N 25°12' E 118°58'0 0.0
2015-Feb-24 18:33N 25°12' E 118°58'0 0.0
2015-Feb-24 17:27N 25°12' E 118°58'0 0.0
2015-Feb-24 16:33N 25°12' E 118°58'0 0.0
2015-Feb-24 15:27N 25°12' E 118°58'0 0.0
2015-Feb-24 14:27N 25°12' E 118°58'0 0.0
2015-Feb-24 13:27N 25°12' E 118°58'0 0.0
2015-Feb-24 12:33N 25°12' E 118°58'0 0.0
2015-Feb-24 11:27N 25°12' E 118°58'0 0.0
2015-Feb-24 10:09N 25°12' E 118°58'0 0.0
2015-Feb-24 09:33N 25°12' E 118°58'0 0.0
2015-Feb-24 08:33N 25°12' E 118°58'0 0.0
2015-Feb-24 07:33N 25°12' E 118°58'0 0.0
2015-Feb-24 06:33N 25°12' E 118°58'0 0.0
2015-Feb-24 05:33N 25°13' E 118°58'0 0.0
2015-Feb-24 04:33N 25°12' E 118°58'0 0.0
2015-Feb-24 03:15N 25°12' E 118°58'0 0.0
2015-Feb-24 02:33N 25°12' E 118°58'0 0.0
2015-Feb-24 01:33N 25°12' E 118°58'0 0.0
2015-Feb-24 00:33N 25°12' E 118°58'0 0.0
2015-Feb-23 23:30N 25°12' E 118°58'0 0.0
2015-Feb-23 22:33N 25°12' E 118°58'0 0.0
2015-Feb-23 21:33N 25°13' E 118°58'0 0.0
2015-Feb-23 20:33N 25°12' E 118°58'0 0.0
2015-Feb-23 19:33N 25°12' E 118°58'0 0.0
2015-Feb-23 18:33N 25°12' E 118°58'0 0.0
2015-Feb-23 17:33N 25°12' E 118°58'0 0.0
2015-Feb-23 16:33N 25°12' E 118°58'0 0.0
2015-Feb-23 15:33N 25°12' E 118°58'0 0.0
2015-Feb-23 14:27N 25°12' E 118°58'0 0.0
2015-Feb-23 13:33N 25°12' E 118°58'0 0.0
2015-Feb-23 12:27N 25°12' E 118°58'0 0.0
2015-Feb-23 11:27N 25°12' E 118°58'0 0.0
2015-Feb-23 10:21N 25°12' E 118°58'0 0.0
2015-Feb-23 09:33N 25°13' E 118°58'0 0.0
2015-Feb-23 08:15N 25°12' E 118°58'0 0.0
2015-Feb-23 07:27N 25°12' E 118°58'0 0.4
2015-Feb-23 06:33N 25°13' E 118°58'6 6.1
2015-Feb-23 05:33N 25°07' E 119°00'9 8.5
2015-Feb-23 04:33N 24°59' E 119°04'4 3.5
2015-Feb-23 03:21N 24°56' E 119°07'0 0.1
2015-Feb-23 02:33N 24°56' E 119°07'0 0.1
2015-Feb-23 01:33N 24°56' E 119°07'0 0.0
2015-Feb-23 00:33N 24°56' E 119°07'0 0.1
2015-Feb-22 23:33N 24°56' E 119°07'0 0.1
2015-Feb-22 22:33N 24°56' E 119°07'0 0.1
2015-Feb-22 21:27N 24°56' E 119°07'0 0.0
2015-Feb-22 20:15N 24°56' E 119°07'0 0.0
2015-Feb-22 18:27N 24°56' E 119°07'0 0.1
2015-Feb-22 17:33N 24°56' E 119°07'0 0.0
2015-Feb-22 16:33N 24°56' E 119°07'0 0.1
2015-Feb-22 15:33N 24°56' E 119°07'0 0.1
2015-Feb-22 14:33N 24°56' E 119°07'0 0.0
2015-Feb-22 13:33N 24°56' E 119°07'0 0.1
2015-Feb-22 12:24N 24°56' E 119°07'0 0.1
2015-Feb-22 10:10N 24°56' E 119°07'3 5.0
2015-Feb-22 09:32N 24°56' E 119°10'5211.8
2015-Feb-22 05:07N 25°21' E 120°01'26812.2
2015-Feb-21 07:12N 29°10' E 122°38'2011.9
2015-Feb-21 05:33N 29°28' E 122°45'1411.1
2015-Feb-21 04:19N 29°41' E 122°50'910.9
2015-Feb-21 03:27N 29°50' E 122°53'324 9.8
2015-Feb-19 18:28N 34°53' E 120°35'1210.5
2015-Feb-19 17:19N 34°56' E 120°20'2111.6
2015-Feb-19 15:31N 35°03' E 119°56'1212.2
2015-Feb-19 14:33N 35°04' E 119°42'1111.0
2015-Feb-19 13:32N 35°03' E 119°28'6 2.3
2015-Feb-19 11:03N 35°06' E 119°22'0 0.0
2015-Feb-19 10:09N 35°06' E 119°22'0 0.0
2015-Feb-19 07:33N 35°06' E 119°22'0 0.0
2015-Feb-19 02:27N 35°06' E 119°22'0 0.0
2015-Feb-19 01:15N 35°06' E 119°22'  
Track history (hours):
 
Tides and Currents Weather Stations Pressure Air Temp Water Temp Dewpoint Dewpoint Depression Visibility Wind Speed Wind Dir Waves Ship Positions

Yuedian 58

Last reported at 2015-Feb-28 02:21 UTC. Time now 2015-Mar-01 11:04 UTC.
Position N 37°34' E 122°46'.

Length 190 m; draft 7.5 m.

Type: Cargo ship. MMSI: 414008000.

Date/timePositionNaut miles runAvg speedWind from/ knotsBaromVisibWave heightAir tempDewpointWater temp
2015-Feb-28 02:21N 37°34' E 122°46'2312.8
2015-Feb-28 00:33N 37°12' E 122°53'1313.1
2015-Feb-27 23:33N 36°59' E 122°54'  
2015-Feb-25 11:28N 25°12' E 119°50'2713.9
2015-Feb-25 09:33N 24°56' E 119°26'1413.5
2015-Feb-25 08:32N 24°56' E 119°11'1111.1
2015-Feb-25 07:34N 25°03' E 119°02'1010.3
2015-Feb-25 06:33N 25°13' E 118°58'0 0.3
2015-Feb-25 05:21N 25°12' E 118°58'0 0.0
2015-Feb-25 04:33N 25°12' E 118°58'0 0.0
2015-Feb-25 03:33N 25°12' E 118°58'0 0.0
2015-Feb-25 02:27N 25°12' E 118°58'0 0.0
2015-Feb-25 01:33N 25°12' E 118°58'0 0.0
2015-Feb-25 00:21N 25°12' E 118°58'0 0.0
2015-Feb-24 23:33N 25°12' E 118°58'0 0.0
2015-Feb-24 22:21N 25°12' E 118°58'0 0.0
2015-Feb-24 21:33N 25°12' E 118°58'0 0.0
2015-Feb-24 20:27N 25°12' E 118°58'0 0.0
2015-Feb-24 19:15N 25°12' E 118°58'0 0.0
2015-Feb-24 18:33N 25°12' E 118°58'0 0.0
2015-Feb-24 17:27N 25°12' E 118°58'0 0.0
2015-Feb-24 16:33N 25°12' E 118°58'0 0.0
2015-Feb-24 15:27N 25°12' E 118°58'0 0.0
2015-Feb-24 14:27N 25°12' E 118°58'0 0.0
2015-Feb-24 13:27N 25°12' E 118°58'0 0.0
2015-Feb-24 12:33N 25°12' E 118°58'0 0.0
2015-Feb-24 11:27N 25°12' E 118°58'0 0.0
2015-Feb-24 10:09N 25°12' E 118°58'0 0.0
2015-Feb-24 09:33N 25°12' E 118°58'0 0.0
2015-Feb-24 08:33N 25°12' E 118°58'0 0.0
2015-Feb-24 07:33N 25°12' E 118°58'0 0.0
2015-Feb-24 06:33N 25°12' E 118°58'0 0.0
2015-Feb-24 05:33N 25°13' E 118°58'0 0.0
2015-Feb-24 04:33N 25°12' E 118°58'0 0.0
2015-Feb-24 03:15N 25°12' E 118°58'0 0.0
2015-Feb-24 02:33N 25°12' E 118°58'0 0.0
2015-Feb-24 01:33N 25°12' E 118°58'0 0.0
2015-Feb-24 00:33N 25°12' E 118°58'0 0.0
2015-Feb-23 23:30N 25°12' E 118°58'0 0.0
2015-Feb-23 22:33N 25°12' E 118°58'0 0.0
2015-Feb-23 21:33N 25°13' E 118°58'0 0.0
2015-Feb-23 20:33N 25°12' E 118°58'0 0.0
2015-Feb-23 19:33N 25°12' E 118°58'0 0.0
2015-Feb-23 18:33N 25°12' E 118°58'0 0.0
2015-Feb-23 17:33N 25°12' E 118°58'0 0.0
2015-Feb-23 16:33N 25°12' E 118°58'0 0.0
2015-Feb-23 15:33N 25°12' E 118°58'0 0.0
2015-Feb-23 14:27N 25°12' E 118°58'0 0.0
2015-Feb-23 13:33N 25°12' E 118°58'0 0.0
2015-Feb-23 12:27N 25°12' E 118°58'0 0.0
2015-Feb-23 11:27N 25°12' E 118°58'0 0.0
2015-Feb-23 10:21N 25°12' E 118°58'0 0.0
2015-Feb-23 09:33N 25°13' E 118°58'0 0.0
2015-Feb-23 08:15N 25°12' E 118°58'0 0.0
2015-Feb-23 07:27N 25°12' E 118°58'0 0.4
2015-Feb-23 06:33N 25°13' E 118°58'6 6.1
2015-Feb-23 05:33N 25°07' E 119°00'9 8.5
2015-Feb-23 04:33N 24°59' E 119°04'4 3.5
2015-Feb-23 03:21N 24°56' E 119°07'0 0.1
2015-Feb-23 02:33N 24°56' E 119°07'0 0.1
2015-Feb-23 01:33N 24°56' E 119°07'0 0.0
2015-Feb-23 00:33N 24°56' E 119°07'0 0.1
2015-Feb-22 23:33N 24°56' E 119°07'0 0.1
2015-Feb-22 22:33N 24°56' E 119°07'0 0.1
2015-Feb-22 21:27N 24°56' E 119°07'0 0.0
2015-Feb-22 20:15N 24°56' E 119°07'0 0.0
2015-Feb-22 18:27N 24°56' E 119°07'0 0.1
2015-Feb-22 17:33N 24°56' E 119°07'0 0.0
2015-Feb-22 16:33N 24°56' E 119°07'0 0.1
2015-Feb-22 15:33N 24°56' E 119°07'0 0.1
2015-Feb-22 14:33N 24°56' E 119°07'0 0.0
2015-Feb-22 13:33N 24°56' E 119°07'0 0.1
2015-Feb-22 12:24N 24°56' E 119°07'0 0.1
2015-Feb-22 10:10N 24°56' E 119°07'3 5.0
2015-Feb-22 09:32N 24°56' E 119°10'5211.8
2015-Feb-22 05:07N 25°21' E 120°01'26812.2
2015-Feb-21 07:12N 29°10' E 122°38'2011.9
2015-Feb-21 05:33N 29°28' E 122°45'1411.1
2015-Feb-21 04:19N 29°41' E 122°50'910.9
2015-Feb-21 03:27N 29°50' E 122°53'324 9.8
2015-Feb-19 18:28N 34°53' E 120°35'1210.5
2015-Feb-19 17:19N 34°56' E 120°20'2111.6
2015-Feb-19 15:31N 35°03' E 119°56'1212.2
2015-Feb-19 14:33N 35°04' E 119°42'1111.0
2015-Feb-19 13:32N 35°03' E 119°28'6 2.3
2015-Feb-19 11:03N 35°06' E 119°22'0 0.0
2015-Feb-19 10:09N 35°06' E 119°22'0 0.0
2015-Feb-19 07:33N 35°06' E 119°22'0 0.0
2015-Feb-19 02:27N 35°06' E 119°22'0 0.0
2015-Feb-19 01:15N 35°06' E 119°22'  

Dump ship's entire track history